sensor_id;sensor_type;location;lat;lon;timestamp;P1;durP1;ratioP1;P2;durP2;ratioP2
18693;SDS011;9477;51.414;10.362;2023-01-26T00:00:06;77.77;;;11.10;;
18693;SDS011;9477;51.414;10.362;2023-01-26T00:02:11;79.60;;;9.83;;
18693;SDS011;9477;51.414;10.362;2023-01-26T00:04:14;53.83;;;10.23;;
18693;SDS011;9477;51.414;10.362;2023-01-26T00:06:17;140.67;;;13.43;;
18693;SDS011;9477;51.414;10.362;2023-01-26T00:08:21;134.40;;;11.40;;
18693;SDS011;9477;51.414;10.362;2023-01-26T00:10:24;115.23;;;12.70;;
18693;SDS011;9477;51.414;10.362;2023-01-26T00:12:28;99.73;;;12.10;;
18693;SDS011;9477;51.414;10.362;2023-01-26T00:14:32;68.87;;;11.80;;
18693;SDS011;9477;51.414;10.362;2023-01-26T00:16:50;37.50;;;10.90;;
18693;SDS011;9477;51.414;10.362;2023-01-26T00:18:53;29.37;;;10.47;;
18693;SDS011;9477;51.414;10.362;2023-01-26T00:20:57;38.77;;;11.47;;
18693;SDS011;9477;51.414;10.362;2023-01-26T00:23:00;53.20;;;11.20;;
18693;SDS011;9477;51.414;10.362;2023-01-26T00:25:03;131.30;;;13.03;;
18693;SDS011;9477;51.414;10.362;2023-01-26T00:27:07;170.57;;;13.43;;
18693;SDS011;9477;51.414;10.362;2023-01-26T00:29:09;189.37;;;15.37;;
18693;SDS011;9477;51.414;10.362;2023-01-26T00:31:15;80.97;;;11.87;;
18693;SDS011;9477;51.414;10.362;2023-01-26T00:33:19;184.47;;;16.23;;
18693;SDS011;9477;51.414;10.362;2023-01-26T00:35:21;404.97;;;16.90;;
18693;SDS011;9477;51.414;10.362;2023-01-26T00:37:25;248.17;;;16.00;;
18693;SDS011;9477;51.414;10.362;2023-01-26T00:39:28;139.63;;;14.10;;
18693;SDS011;9477;51.414;10.362;2023-01-26T00:41:30;122.83;;;13.93;;
18693;SDS011;9477;51.414;10.362;2023-01-26T00:43:50;135.57;;;14.50;;
18693;SDS011;9477;51.414;10.362;2023-01-26T00:45:53;95.53;;;11.50;;
18693;SDS011;9477;51.414;10.362;2023-01-26T00:47:57;97.17;;;14.37;;
18693;SDS011;9477;51.414;10.362;2023-01-26T00:50:00;110.73;;;11.80;;
18693;SDS011;9477;51.414;10.362;2023-01-26T00:52:04;90.90;;;13.47;;
18693;SDS011;9477;51.414;10.362;2023-01-26T00:54:07;70.23;;;12.37;;
18693;SDS011;9477;51.414;10.362;2023-01-26T00:56:10;58.30;;;10.40;;
18693;SDS011;9477;51.414;10.362;2023-01-26T00:58:14;187.37;;;12.53;;
18693;SDS011;9477;51.414;10.362;2023-01-26T01:00:17;105.03;;;10.93;;
18693;SDS011;9477;51.414;10.362;2023-01-26T01:02:20;117.30;;;11.70;;
18693;SDS011;9477;51.414;10.362;2023-01-26T01:04:24;90.30;;;12.83;;
18693;SDS011;9477;51.414;10.362;2023-01-26T01:06:27;47.87;;;9.77;;
18693;SDS011;9477;51.414;10.362;2023-01-26T01:08:30;54.00;;;10.63;;
18693;SDS011;9477;51.414;10.362;2023-01-26T01:10:33;37.37;;;10.30;;
18693;SDS011;9477;51.414;10.362;2023-01-26T01:12:35;74.93;;;10.83;;
18693;SDS011;9477;51.414;10.362;2023-01-26T01:14:38;74.50;;;13.17;;
18693;SDS011;9477;51.414;10.362;2023-01-26T01:16:41;63.43;;;9.70;;
18693;SDS011;9477;51.414;10.362;2023-01-26T01:18:45;78.07;;;9.60;;
18693;SDS011;9477;51.414;10.362;2023-01-26T01:20:49;70.43;;;11.37;;
18693;SDS011;9477;51.414;10.362;2023-01-26T01:22:52;96.37;;;10.90;;
18693;SDS011;9477;51.414;10.362;2023-01-26T01:24:54;43.10;;;11.20;;
18693;SDS011;9477;51.414;10.362;2023-01-26T01:26:57;33.93;;;10.73;;
18693;SDS011;9477;51.414;10.362;2023-01-26T01:29:00;43.93;;;11.83;;
18693;SDS011;9477;51.414;10.362;2023-01-26T01:31:03;42.13;;;10.17;;
18693;SDS011;9477;51.414;10.362;2023-01-26T01:33:06;36.67;;;11.20;;
18693;SDS011;9477;51.414;10.362;2023-01-26T01:35:09;31.00;;;10.73;;
18693;SDS011;9477;51.414;10.362;2023-01-26T01:37:13;34.90;;;10.27;;
18693;SDS011;9477;51.414;10.362;2023-01-26T01:39:16;39.23;;;11.10;;
18693;SDS011;9477;51.414;10.362;2023-01-26T01:41:19;30.67;;;10.37;;
18693;SDS011;9477;51.414;10.362;2023-01-26T01:43:24;29.80;;;10.77;;
18693;SDS011;9477;51.414;10.362;2023-01-26T01:45:40;30.10;;;11.23;;
18693;SDS011;9477;51.414;10.362;2023-01-26T01:47:44;15.77;;;8.77;;
18693;SDS011;9477;51.414;10.362;2023-01-26T01:49:48;31.47;;;10.97;;
18693;SDS011;9477;51.414;10.362;2023-01-26T01:51:54;24.43;;;9.80;;
18693;SDS011;9477;51.414;10.362;2023-01-26T01:54:03;30.10;;;10.40;;
18693;SDS011;9477;51.414;10.362;2023-01-26T01:56:11;21.17;;;10.67;;
18693;SDS011;9477;51.414;10.362;2023-01-26T01:58:19;17.67;;;9.73;;
18693;SDS011;9477;51.414;10.362;2023-01-26T02:00:22;20.23;;;10.67;;
18693;SDS011;9477;51.414;10.362;2023-01-26T02:02:25;22.07;;;10.43;;
18693;SDS011;9477;51.414;10.362;2023-01-26T02:04:28;20.03;;;10.23;;
18693;SDS011;9477;51.414;10.362;2023-01-26T02:06:32;21.77;;;9.30;;
18693;SDS011;9477;51.414;10.362;2023-01-26T02:08:42;19.73;;;9.70;;
18693;SDS011;9477;51.414;10.362;2023-01-26T02:10:48;17.47;;;9.37;;
18693;SDS011;9477;51.414;10.362;2023-01-26T02:12:55;23.60;;;9.40;;
18693;SDS011;9477;51.414;10.362;2023-01-26T02:15:00;16.47;;;8.60;;
18693;SDS011;9477;51.414;10.362;2023-01-26T02:17:05;14.80;;;8.33;;
18693;SDS011;9477;51.414;10.362;2023-01-26T02:19:11;15.80;;;8.90;;
18693;SDS011;9477;51.414;10.362;2023-01-26T02:21:20;12.43;;;7.63;;
18693;SDS011;9477;51.414;10.362;2023-01-26T02:23:27;11.70;;;7.23;;
18693;SDS011;9477;51.414;10.362;2023-01-26T02:25:39;11.37;;;7.17;;
18693;SDS011;9477;51.414;10.362;2023-01-26T02:27:50;14.03;;;7.80;;
18693;SDS011;9477;51.414;10.362;2023-01-26T02:29:53;11.90;;;6.80;;
18693;SDS011;9477;51.414;10.362;2023-01-26T02:31:58;10.97;;;6.77;;
18693;SDS011;9477;51.414;10.362;2023-01-26T02:34:00;12.47;;;7.60;;
18693;SDS011;9477;51.414;10.362;2023-01-26T02:36:03;9.20;;;6.40;;
18693;SDS011;9477;51.414;10.362;2023-01-26T02:38:07;8.87;;;5.40;;
18693;SDS011;9477;51.414;10.362;2023-01-26T02:40:12;9.57;;;6.43;;
18693;SDS011;9477;51.414;10.362;2023-01-26T02:42:20;9.37;;;5.93;;
18693;SDS011;9477;51.414;10.362;2023-01-26T02:44:43;11.00;;;6.40;;
18693;SDS011;9477;51.414;10.362;2023-01-26T02:46:46;6.33;;;4.03;;
18693;SDS011;9477;51.414;10.362;2023-01-26T02:48:49;9.53;;;6.37;;
18693;SDS011;9477;51.414;10.362;2023-01-26T02:51:09;9.53;;;6.07;;
18693;SDS011;9477;51.414;10.362;2023-01-26T02:53:12;8.80;;;6.27;;
18693;SDS011;9477;51.414;10.362;2023-01-26T02:55:15;12.23;;;6.87;;
18693;SDS011;9477;51.414;10.362;2023-01-26T02:57:23;9.60;;;6.60;;
18693;SDS011;9477;51.414;10.362;2023-01-26T02:59:26;9.03;;;6.10;;
18693;SDS011;9477;51.414;10.362;2023-01-26T03:01:30;9.57;;;6.40;;
18693;SDS011;9477;51.414;10.362;2023-01-26T03:03:32;11.47;;;6.70;;
18693;SDS011;9477;51.414;10.362;2023-01-26T03:05:45;9.83;;;6.67;;
18693;SDS011;9477;51.414;10.362;2023-01-26T03:07:48;10.67;;;7.37;;
18693;SDS011;9477;51.414;10.362;2023-01-26T03:09:51;13.00;;;7.60;;
18693;SDS011;9477;51.414;10.362;2023-01-26T03:11:54;11.20;;;7.17;;
18693;SDS011;9477;51.414;10.362;2023-01-26T03:13:57;10.60;;;6.90;;
18693;SDS011;9477;51.414;10.362;2023-01-26T03:15:59;9.27;;;6.07;;
18693;SDS011;9477;51.414;10.362;2023-01-26T03:18:09;12.20;;;8.03;;
18693;SDS011;9477;51.414;10.362;2023-01-26T03:20:30;10.77;;;7.37;;
18693;SDS011;9477;51.414;10.362;2023-01-26T03:22:51;13.83;;;8.43;;
18693;SDS011;9477;51.414;10.362;2023-01-26T03:25:11;15.13;;;9.20;;
18693;SDS011;9477;51.414;10.362;2023-01-26T03:27:35;15.63;;;9.40;;
18693;SDS011;9477;51.414;10.362;2023-01-26T03:29:41;18.63;;;11.00;;
18693;SDS011;9477;51.414;10.362;2023-01-26T03:31:43;16.07;;;9.73;;
18693;SDS011;9477;51.414;10.362;2023-01-26T03:33:47;17.60;;;10.43;;
18693;SDS011;9477;51.414;10.362;2023-01-26T03:35:51;16.83;;;9.97;;
18693;SDS011;9477;51.414;10.362;2023-01-26T03:37:54;25.10;;;12.80;;
18693;SDS011;9477;51.414;10.362;2023-01-26T03:39:57;18.07;;;9.77;;
18693;SDS011;9477;51.414;10.362;2023-01-26T03:42:29;20.73;;;11.73;;
18693;SDS011;9477;51.414;10.362;2023-01-26T03:44:49;23.60;;;12.30;;
18693;SDS011;9477;51.414;10.362;2023-01-26T03:47:09;22.30;;;12.03;;
18693;SDS011;9477;51.414;10.362;2023-01-26T03:49:31;21.33;;;10.07;;
18693;SDS011;9477;51.414;10.362;2023-01-26T03:51:51;28.13;;;12.67;;
18693;SDS011;9477;51.414;10.362;2023-01-26T03:54:11;34.07;;;13.03;;
18693;SDS011;9477;51.414;10.362;2023-01-26T03:56:31;36.67;;;15.40;;
18693;SDS011;9477;51.414;10.362;2023-01-26T03:58:34;38.23;;;14.80;;
18693;SDS011;9477;51.414;10.362;2023-01-26T04:00:37;30.93;;;14.70;;
18693;SDS011;9477;51.414;10.362;2023-01-26T04:02:40;29.20;;;15.17;;
18693;SDS011;9477;51.414;10.362;2023-01-26T04:05:02;30.53;;;14.33;;
18693;SDS011;9477;51.414;10.362;2023-01-26T04:07:23;31.87;;;13.20;;
18693;SDS011;9477;51.414;10.362;2023-01-26T04:09:43;29.80;;;13.53;;
18693;SDS011;9477;51.414;10.362;2023-01-26T04:11:46;27.00;;;13.37;;
18693;SDS011;9477;51.414;10.362;2023-01-26T04:13:49;23.40;;;12.97;;
18693;SDS011;9477;51.414;10.362;2023-01-26T04:16:09;26.77;;;12.13;;
18693;SDS011;9477;51.414;10.362;2023-01-26T04:18:29;30.47;;;15.37;;
18693;SDS011;9477;51.414;10.362;2023-01-26T04:20:51;46.13;;;14.70;;
18693;SDS011;9477;51.414;10.362;2023-01-26T04:23:15;28.90;;;14.43;;
18693;SDS011;9477;51.414;10.362;2023-01-26T04:25:19;33.87;;;14.30;;
18693;SDS011;9477;51.414;10.362;2023-01-26T04:27:22;32.73;;;16.00;;
18693;SDS011;9477;51.414;10.362;2023-01-26T04:29:25;34.53;;;14.77;;
18693;SDS011;9477;51.414;10.362;2023-01-26T04:31:28;26.77;;;12.17;;
18693;SDS011;9477;51.414;10.362;2023-01-26T04:33:31;43.60;;;15.10;;
18693;SDS011;9477;51.414;10.362;2023-01-26T04:35:33;27.37;;;14.13;;
18693;SDS011;9477;51.414;10.362;2023-01-26T04:37:37;28.67;;;14.37;;
18693;SDS011;9477;51.414;10.362;2023-01-26T04:39:40;31.27;;;14.87;;
18693;SDS011;9477;51.414;10.362;2023-01-26T04:41:43;36.30;;;15.90;;
18693;SDS011;9477;51.414;10.362;2023-01-26T04:43:46;25.97;;;14.33;;
18693;SDS011;9477;51.414;10.362;2023-01-26T04:45:55;43.10;;;16.97;;
18693;SDS011;9477;51.414;10.362;2023-01-26T04:47:59;38.87;;;16.50;;
18693;SDS011;9477;51.414;10.362;2023-01-26T04:50:02;36.90;;;17.23;;
18693;SDS011;9477;51.414;10.362;2023-01-26T04:52:05;30.83;;;15.73;;
18693;SDS011;9477;51.414;10.362;2023-01-26T04:54:09;33.33;;;16.60;;
18693;SDS011;9477;51.414;10.362;2023-01-26T04:56:14;31.03;;;15.23;;
18693;SDS011;9477;51.414;10.362;2023-01-26T04:58:21;40.33;;;17.83;;
18693;SDS011;9477;51.414;10.362;2023-01-26T05:00:24;35.50;;;16.37;;
18693;SDS011;9477;51.414;10.362;2023-01-26T05:02:27;32.10;;;16.07;;
18693;SDS011;9477;51.414;10.362;2023-01-26T05:04:29;30.97;;;16.30;;
18693;SDS011;9477;51.414;10.362;2023-01-26T05:06:33;28.20;;;14.23;;
18693;SDS011;9477;51.414;10.362;2023-01-26T05:08:36;25.33;;;13.63;;
18693;SDS011;9477;51.414;10.362;2023-01-26T05:10:40;29.43;;;14.93;;
18693;SDS011;9477;51.414;10.362;2023-01-26T05:12:43;25.13;;;14.50;;
18693;SDS011;9477;51.414;10.362;2023-01-26T05:14:46;29.63;;;15.17;;
18693;SDS011;9477;51.414;10.362;2023-01-26T05:16:49;31.97;;;17.00;;
18693;SDS011;9477;51.414;10.362;2023-01-26T05:18:52;28.73;;;13.53;;
18693;SDS011;9477;51.414;10.362;2023-01-26T05:20:55;36.43;;;17.77;;
18693;SDS011;9477;51.414;10.362;2023-01-26T05:22:58;34.00;;;17.97;;
18693;SDS011;9477;51.414;10.362;2023-01-26T05:25:00;78.63;;;34.20;;
18693;SDS011;9477;51.414;10.362;2023-01-26T05:27:05;38.30;;;19.43;;
18693;SDS011;9477;51.414;10.362;2023-01-26T05:29:23;42.97;;;23.37;;
18693;SDS011;9477;51.414;10.362;2023-01-26T05:31:25;34.77;;;17.30;;
18693;SDS011;9477;51.414;10.362;2023-01-26T05:33:28;26.13;;;14.57;;
18693;SDS011;9477;51.414;10.362;2023-01-26T05:35:32;30.03;;;16.47;;
18693;SDS011;9477;51.414;10.362;2023-01-26T05:37:35;34.17;;;17.53;;
18693;SDS011;9477;51.414;10.362;2023-01-26T05:39:38;27.53;;;14.70;;
18693;SDS011;9477;51.414;10.362;2023-01-26T05:41:41;41.57;;;20.30;;
18693;SDS011;9477;51.414;10.362;2023-01-26T05:43:45;25.57;;;14.20;;
18693;SDS011;9477;51.414;10.362;2023-01-26T05:45:47;24.90;;;14.03;;
18693;SDS011;9477;51.414;10.362;2023-01-26T05:47:50;35.90;;;16.23;;
18693;SDS011;9477;51.414;10.362;2023-01-26T05:49:53;29.00;;;15.13;;
18693;SDS011;9477;51.414;10.362;2023-01-26T05:51:56;42.90;;;23.00;;
18693;SDS011;9477;51.414;10.362;2023-01-26T05:53:59;39.73;;;22.90;;
18693;SDS011;9477;51.414;10.362;2023-01-26T05:56:02;37.63;;;18.80;;
18693;SDS011;9477;51.414;10.362;2023-01-26T05:58:05;38.87;;;19.43;;
18693;SDS011;9477;51.414;10.362;2023-01-26T06:00:10;24.50;;;14.17;;
18693;SDS011;9477;51.414;10.362;2023-01-26T06:02:14;41.90;;;21.97;;
18693;SDS011;9477;51.414;10.362;2023-01-26T06:04:17;45.53;;;23.07;;
18693;SDS011;9477;51.414;10.362;2023-01-26T06:06:20;36.20;;;18.53;;
18693;SDS011;9477;51.414;10.362;2023-01-26T06:08:22;33.30;;;17.93;;
18693;SDS011;9477;51.414;10.362;2023-01-26T06:10:25;37.70;;;19.60;;
18693;SDS011;9477;51.414;10.362;2023-01-26T06:12:28;30.50;;;17.70;;
18693;SDS011;9477;51.414;10.362;2023-01-26T06:14:35;40.10;;;20.27;;
18693;SDS011;9477;51.414;10.362;2023-01-26T06:16:39;34.60;;;18.10;;
18693;SDS011;9477;51.414;10.362;2023-01-26T06:18:42;28.00;;;15.00;;
18693;SDS011;9477;51.414;10.362;2023-01-26T06:20:48;28.77;;;15.60;;
18693;SDS011;9477;51.414;10.362;2023-01-26T06:22:51;32.20;;;16.27;;
18693;SDS011;9477;51.414;10.362;2023-01-26T06:24:53;38.10;;;17.53;;
18693;SDS011;9477;51.414;10.362;2023-01-26T06:26:56;31.17;;;15.90;;
18693;SDS011;9477;51.414;10.362;2023-01-26T06:28:59;34.63;;;18.87;;
18693;SDS011;9477;51.414;10.362;2023-01-26T06:31:02;35.83;;;20.00;;
18693;SDS011;9477;51.414;10.362;2023-01-26T06:33:08;31.17;;;15.20;;
18693;SDS011;9477;51.414;10.362;2023-01-26T06:35:10;35.23;;;17.73;;
18693;SDS011;9477;51.414;10.362;2023-01-26T06:37:13;36.40;;;19.23;;
18693;SDS011;9477;51.414;10.362;2023-01-26T06:39:16;27.77;;;15.00;;
18693;SDS011;9477;51.414;10.362;2023-01-26T06:41:18;28.23;;;14.87;;
18693;SDS011;9477;51.414;10.362;2023-01-26T06:43:21;27.83;;;14.77;;
18693;SDS011;9477;51.414;10.362;2023-01-26T06:45:24;25.37;;;13.23;;
18693;SDS011;9477;51.414;10.362;2023-01-26T06:47:27;34.80;;;16.40;;
18693;SDS011;9477;51.414;10.362;2023-01-26T06:49:31;31.73;;;15.93;;
18693;SDS011;9477;51.414;10.362;2023-01-26T06:51:41;29.93;;;14.77;;
18693;SDS011;9477;51.414;10.362;2023-01-26T06:53:47;31.20;;;14.20;;
18693;SDS011;9477;51.414;10.362;2023-01-26T06:55:53;34.23;;;15.53;;
18693;SDS011;9477;51.414;10.362;2023-01-26T06:57:56;32.37;;;16.30;;
18693;SDS011;9477;51.414;10.362;2023-01-26T06:59:59;34.47;;;15.60;;
18693;SDS011;9477;51.414;10.362;2023-01-26T07:02:01;32.07;;;15.40;;
18693;SDS011;9477;51.414;10.362;2023-01-26T07:04:04;33.37;;;16.83;;
18693;SDS011;9477;51.414;10.362;2023-01-26T07:06:08;32.67;;;15.47;;
18693;SDS011;9477;51.414;10.362;2023-01-26T07:08:12;28.03;;;13.27;;
18693;SDS011;9477;51.414;10.362;2023-01-26T07:10:15;29.57;;;14.87;;
18693;SDS011;9477;51.414;10.362;2023-01-26T07:12:17;43.37;;;18.03;;
18693;SDS011;9477;51.414;10.362;2023-01-26T07:14:21;38.60;;;17.77;;
18693;SDS011;9477;51.414;10.362;2023-01-26T07:16:23;33.80;;;16.50;;
18693;SDS011;9477;51.414;10.362;2023-01-26T07:18:27;23.63;;;12.07;;
18693;SDS011;9477;51.414;10.362;2023-01-26T07:20:30;27.60;;;14.23;;
18693;SDS011;9477;51.414;10.362;2023-01-26T07:22:34;26.13;;;14.50;;
18693;SDS011;9477;51.414;10.362;2023-01-26T07:24:36;25.37;;;12.93;;
18693;SDS011;9477;51.414;10.362;2023-01-26T07:26:39;30.40;;;14.30;;
18693;SDS011;9477;51.414;10.362;2023-01-26T07:28:42;27.07;;;14.60;;
18693;SDS011;9477;51.414;10.362;2023-01-26T07:30:45;27.70;;;14.60;;
18693;SDS011;9477;51.414;10.362;2023-01-26T07:32:47;33.67;;;16.70;;
18693;SDS011;9477;51.414;10.362;2023-01-26T07:34:50;26.50;;;13.60;;
18693;SDS011;9477;51.414;10.362;2023-01-26T07:36:53;27.40;;;14.50;;
18693;SDS011;9477;51.414;10.362;2023-01-26T07:38:57;25.83;;;14.30;;
18693;SDS011;9477;51.414;10.362;2023-01-26T07:41:03;27.47;;;14.47;;
18693;SDS011;9477;51.414;10.362;2023-01-26T07:43:07;28.43;;;14.97;;
18693;SDS011;9477;51.414;10.362;2023-01-26T07:45:10;32.63;;;15.13;;
18693;SDS011;9477;51.414;10.362;2023-01-26T07:47:13;28.53;;;15.30;;
18693;SDS011;9477;51.414;10.362;2023-01-26T07:49:16;29.97;;;15.23;;
18693;SDS011;9477;51.414;10.362;2023-01-26T07:51:18;25.93;;;15.03;;
18693;SDS011;9477;51.414;10.362;2023-01-26T07:53:21;29.80;;;16.00;;
18693;SDS011;9477;51.414;10.362;2023-01-26T07:55:27;27.70;;;15.03;;
18693;SDS011;9477;51.414;10.362;2023-01-26T07:57:30;29.07;;;14.70;;
18693;SDS011;9477;51.414;10.362;2023-01-26T07:59:34;31.40;;;16.00;;
18693;SDS011;9477;51.414;10.362;2023-01-26T08:01:37;30.17;;;14.23;;
18693;SDS011;9477;51.414;10.362;2023-01-26T08:03:40;29.07;;;14.77;;
18693;SDS011;9477;51.414;10.362;2023-01-26T08:05:45;30.17;;;15.70;;
18693;SDS011;9477;51.414;10.362;2023-01-26T08:07:48;31.43;;;14.47;;
18693;SDS011;9477;51.414;10.362;2023-01-26T08:09:51;23.40;;;13.83;;
18693;SDS011;9477;51.414;10.362;2023-01-26T08:11:56;29.87;;;15.57;;
18693;SDS011;9477;51.414;10.362;2023-01-26T08:13:59;44.10;;;23.10;;
18693;SDS011;9477;51.414;10.362;2023-01-26T08:16:02;30.83;;;15.33;;
18693;SDS011;9477;51.414;10.362;2023-01-26T08:18:07;27.77;;;14.77;;
18693;SDS011;9477;51.414;10.362;2023-01-26T08:20:10;27.97;;;14.93;;
18693;SDS011;9477;51.414;10.362;2023-01-26T08:22:14;29.47;;;15.27;;
18693;SDS011;9477;51.414;10.362;2023-01-26T08:24:17;33.67;;;16.93;;
18693;SDS011;9477;51.414;10.362;2023-01-26T08:26:20;22.63;;;11.73;;
18693;SDS011;9477;51.414;10.362;2023-01-26T08:28:24;25.43;;;13.10;;
18693;SDS011;9477;51.414;10.362;2023-01-26T08:30:27;25.60;;;13.27;;
18693;SDS011;9477;51.414;10.362;2023-01-26T08:32:29;25.90;;;13.77;;
18693;SDS011;9477;51.414;10.362;2023-01-26T08:34:32;27.90;;;13.97;;
18693;SDS011;9477;51.414;10.362;2023-01-26T08:36:35;26.63;;;13.97;;
18693;SDS011;9477;51.414;10.362;2023-01-26T08:38:40;27.17;;;13.13;;
18693;SDS011;9477;51.414;10.362;2023-01-26T08:40:43;27.00;;;13.97;;
18693;SDS011;9477;51.414;10.362;2023-01-26T08:42:46;27.23;;;14.27;;
18693;SDS011;9477;51.414;10.362;2023-01-26T08:44:50;25.87;;;13.50;;
18693;SDS011;9477;51.414;10.362;2023-01-26T08:46:53;26.10;;;13.87;;
18693;SDS011;9477;51.414;10.362;2023-01-26T08:48:56;27.10;;;14.47;;
18693;SDS011;9477;51.414;10.362;2023-01-26T08:51:01;31.20;;;15.37;;
18693;SDS011;9477;51.414;10.362;2023-01-26T08:53:05;29.50;;;14.90;;
18693;SDS011;9477;51.414;10.362;2023-01-26T08:55:09;37.07;;;16.63;;
18693;SDS011;9477;51.414;10.362;2023-01-26T08:57:11;30.80;;;15.53;;
18693;SDS011;9477;51.414;10.362;2023-01-26T08:59:14;32.93;;;15.73;;
18693;SDS011;9477;51.414;10.362;2023-01-26T09:01:18;36.93;;;18.00;;
18693;SDS011;9477;51.414;10.362;2023-01-26T09:03:21;32.33;;;15.90;;
18693;SDS011;9477;51.414;10.362;2023-01-26T09:05:24;45.47;;;22.13;;
18693;SDS011;9477;51.414;10.362;2023-01-26T09:07:27;36.90;;;18.20;;
18693;SDS011;9477;51.414;10.362;2023-01-26T09:09:29;40.07;;;18.20;;
18693;SDS011;9477;51.414;10.362;2023-01-26T09:11:32;38.20;;;17.90;;
18693;SDS011;9477;51.414;10.362;2023-01-26T09:13:35;39.47;;;17.80;;
18693;SDS011;9477;51.414;10.362;2023-01-26T09:15:39;41.80;;;18.70;;
18693;SDS011;9477;51.414;10.362;2023-01-26T09:17:43;44.23;;;18.87;;
18693;SDS011;9477;51.414;10.362;2023-01-26T09:19:49;38.47;;;18.87;;
18693;SDS011;9477;51.414;10.362;2023-01-26T09:21:51;35.53;;;17.03;;
18693;SDS011;9477;51.414;10.362;2023-01-26T09:23:55;41.13;;;18.93;;
18693;SDS011;9477;51.414;10.362;2023-01-26T09:25:58;42.67;;;19.27;;
18693;SDS011;9477;51.414;10.362;2023-01-26T09:28:00;39.23;;;18.47;;
18693;SDS011;9477;51.414;10.362;2023-01-26T09:30:06;47.90;;;20.80;;
18693;SDS011;9477;51.414;10.362;2023-01-26T09:32:10;44.73;;;20.37;;
18693;SDS011;9477;51.414;10.362;2023-01-26T09:34:14;46.50;;;19.97;;
18693;SDS011;9477;51.414;10.362;2023-01-26T09:36:17;38.23;;;18.20;;
18693;SDS011;9477;51.414;10.362;2023-01-26T09:38:20;44.87;;;18.97;;
18693;SDS011;9477;51.414;10.362;2023-01-26T09:40:25;39.30;;;19.03;;
18693;SDS011;9477;51.414;10.362;2023-01-26T09:42:38;55.97;;;25.47;;
18693;SDS011;9477;51.414;10.362;2023-01-26T09:44:50;43.70;;;20.90;;
18693;SDS011;9477;51.414;10.362;2023-01-26T09:47:03;46.87;;;23.30;;
18693;SDS011;9477;51.414;10.362;2023-01-26T09:49:16;43.47;;;18.80;;
18693;SDS011;9477;51.414;10.362;2023-01-26T09:51:22;46.93;;;20.90;;
18693;SDS011;9477;51.414;10.362;2023-01-26T09:53:33;44.83;;;21.07;;
18693;SDS011;9477;51.414;10.362;2023-01-26T09:55:43;45.27;;;21.03;;
18693;SDS011;9477;51.414;10.362;2023-01-26T09:57:48;42.73;;;18.73;;
18693;SDS011;9477;51.414;10.362;2023-01-26T09:59:55;44.00;;;21.47;;
18693;SDS011;9477;51.414;10.362;2023-01-26T10:02:00;42.70;;;20.27;;
18693;SDS011;9477;51.414;10.362;2023-01-26T10:04:21;45.93;;;20.47;;
18693;SDS011;9477;51.414;10.362;2023-01-26T10:06:32;51.33;;;21.60;;
18693;SDS011;9477;51.414;10.362;2023-01-26T10:08:38;40.40;;;19.63;;
18693;SDS011;9477;51.414;10.362;2023-01-26T10:10:43;46.87;;;20.03;;
18693;SDS011;9477;51.414;10.362;2023-01-26T10:12:49;46.07;;;21.57;;
18693;SDS011;9477;51.414;10.362;2023-01-26T10:14:54;45.90;;;19.40;;
18693;SDS011;9477;51.414;10.362;2023-01-26T10:17:02;48.50;;;21.17;;
18693;SDS011;9477;51.414;10.362;2023-01-26T10:19:09;50.27;;;20.00;;
18693;SDS011;9477;51.414;10.362;2023-01-26T10:21:17;50.67;;;21.40;;
18693;SDS011;9477;51.414;10.362;2023-01-26T10:23:24;49.13;;;22.63;;
18693;SDS011;9477;51.414;10.362;2023-01-26T10:25:32;44.27;;;19.87;;
18693;SDS011;9477;51.414;10.362;2023-01-26T10:27:36;53.50;;;23.10;;
18693;SDS011;9477;51.414;10.362;2023-01-26T10:29:39;46.50;;;20.10;;
18693;SDS011;9477;51.414;10.362;2023-01-26T10:31:42;44.50;;;19.73;;
18693;SDS011;9477;51.414;10.362;2023-01-26T10:33:47;39.50;;;19.20;;
18693;SDS011;9477;51.414;10.362;2023-01-26T10:35:53;49.87;;;20.57;;
18693;SDS011;9477;51.414;10.362;2023-01-26T10:37:57;48.27;;;19.63;;
18693;SDS011;9477;51.414;10.362;2023-01-26T10:40:00;38.13;;;18.50;;
18693;SDS011;9477;51.414;10.362;2023-01-26T10:42:04;38.60;;;18.77;;
18693;SDS011;9477;51.414;10.362;2023-01-26T10:44:20;46.73;;;19.07;;
18693;SDS011;9477;51.414;10.362;2023-01-26T10:46:26;38.33;;;18.17;;
18693;SDS011;9477;51.414;10.362;2023-01-26T10:48:34;47.23;;;21.47;;
18693;SDS011;9477;51.414;10.362;2023-01-26T10:50:36;52.97;;;21.37;;
18693;SDS011;9477;51.414;10.362;2023-01-26T10:52:41;45.13;;;21.97;;
18693;SDS011;9477;51.414;10.362;2023-01-26T10:55:09;42.30;;;19.23;;
18693;SDS011;9477;51.414;10.362;2023-01-26T10:57:22;56.33;;;23.57;;
18693;SDS011;9477;51.414;10.362;2023-01-26T10:59:30;45.03;;;19.97;;
18693;SDS011;9477;51.414;10.362;2023-01-26T11:01:49;42.00;;;18.37;;
18693;SDS011;9477;51.414;10.362;2023-01-26T11:03:59;53.50;;;20.40;;
18693;SDS011;9477;51.414;10.362;2023-01-26T11:06:06;54.67;;;22.40;;
18693;SDS011;9477;51.414;10.362;2023-01-26T11:08:29;69.43;;;25.40;;
18693;SDS011;9477;51.414;10.362;2023-01-26T11:10:35;59.53;;;23.57;;
18693;SDS011;9477;51.414;10.362;2023-01-26T11:12:39;39.87;;;17.70;;
18693;SDS011;9477;51.414;10.362;2023-01-26T11:14:41;46.30;;;20.90;;
18693;SDS011;9477;51.414;10.362;2023-01-26T11:17:05;36.13;;;15.37;;
18693;SDS011;9477;51.414;10.362;2023-01-26T11:19:16;40.50;;;17.87;;
18693;SDS011;9477;51.414;10.362;2023-01-26T11:21:29;37.83;;;16.90;;
18693;SDS011;9477;51.414;10.362;2023-01-26T11:23:40;40.43;;;17.77;;
18693;SDS011;9477;51.414;10.362;2023-01-26T11:25:57;32.33;;;16.67;;
18693;SDS011;9477;51.414;10.362;2023-01-26T11:28:26;33.20;;;14.93;;
18693;SDS011;9477;51.414;10.362;2023-01-26T11:30:51;38.60;;;16.80;;
18693;SDS011;9477;51.414;10.362;2023-01-26T11:33:12;38.17;;;14.97;;
18693;SDS011;9477;51.414;10.362;2023-01-26T11:35:25;29.93;;;13.90;;
18693;SDS011;9477;51.414;10.362;2023-01-26T11:37:38;42.70;;;15.87;;
18693;SDS011;9477;51.414;10.362;2023-01-26T11:39:46;45.80;;;19.60;;
18693;SDS011;9477;51.414;10.362;2023-01-26T11:42:03;65.97;;;23.90;;
18693;SDS011;9477;51.414;10.362;2023-01-26T11:44:21;32.30;;;14.60;;
18693;SDS011;9477;51.414;10.362;2023-01-26T11:46:39;40.97;;;18.00;;
18693;SDS011;9477;51.414;10.362;2023-01-26T11:48:57;40.10;;;18.73;;
18693;SDS011;9477;51.414;10.362;2023-01-26T11:51:06;40.67;;;19.53;;
18693;SDS011;9477;51.414;10.362;2023-01-26T11:53:19;45.50;;;20.23;;
18693;SDS011;9477;51.414;10.362;2023-01-26T11:55:37;40.37;;;21.17;;
18693;SDS011;9477;51.414;10.362;2023-01-26T11:57:54;41.97;;;20.53;;
18693;SDS011;9477;51.414;10.362;2023-01-26T12:00:11;35.53;;;17.77;;
18693;SDS011;9477;51.414;10.362;2023-01-26T12:02:31;43.07;;;19.03;;
18693;SDS011;9477;51.414;10.362;2023-01-26T12:04:35;39.40;;;18.60;;
18693;SDS011;9477;51.414;10.362;2023-01-26T12:06:46;41.37;;;20.17;;
18693;SDS011;9477;51.414;10.362;2023-01-26T12:08:55;38.57;;;19.27;;
18693;SDS011;9477;51.414;10.362;2023-01-26T12:11:03;37.50;;;17.63;;
18693;SDS011;9477;51.414;10.362;2023-01-26T12:13:29;37.33;;;17.57;;
18693;SDS011;9477;51.414;10.362;2023-01-26T12:15:37;38.07;;;18.93;;
18693;SDS011;9477;51.414;10.362;2023-01-26T12:17:45;38.60;;;18.77;;
18693;SDS011;9477;51.414;10.362;2023-01-26T12:20:00;40.57;;;18.30;;